sensor_id;sensor_type;location;lat;lon;timestamp;P1;durP1;ratioP1;P2;durP2;ratioP2
70946;SDS011;58605;48.700;8.760;2022-10-16T00:01:42;4.10;;;3.20;;
70946;SDS011;58605;48.700;8.760;2022-10-16T00:04:08;3.23;;;2.87;;
70946;SDS011;58605;48.700;8.760;2022-10-16T00:06:35;6.63;;;3.38;;
70946;SDS011;58605;48.700;8.760;2022-10-16T00:09:01;3.15;;;2.95;;
70946;SDS011;58605;48.700;8.760;2022-10-16T00:11:27;3.37;;;3.00;;
70946;SDS011;58605;48.700;8.760;2022-10-16T00:13:55;6.90;;;3.10;;
70946;SDS011;58605;48.700;8.760;2022-10-16T00:16:25;4.93;;;3.28;;
70946;SDS011;58605;48.700;8.760;2022-10-16T00:18:51;5.95;;;3.35;;
70946;SDS011;58605;48.700;8.760;2022-10-16T00:21:18;3.25;;;2.70;;
70946;SDS011;58605;48.700;8.760;2022-10-16T00:23:45;3.45;;;2.85;;
70946;SDS011;58605;48.700;8.760;2022-10-16T00:26:12;6.13;;;2.88;;
70946;SDS011;58605;48.700;8.760;2022-10-16T00:28:40;3.22;;;2.92;;
70946;SDS011;58605;48.700;8.760;2022-10-16T00:31:07;2.95;;;2.65;;
70946;SDS011;58605;48.700;8.760;2022-10-16T00:33:37;5.20;;;3.13;;
70946;SDS011;58605;48.700;8.760;2022-10-16T00:36:04;6.57;;;3.10;;
70946;SDS011;58605;48.700;8.760;2022-10-16T00:38:31;8.00;;;2.78;;
70946;SDS011;58605;48.700;8.760;2022-10-16T00:40:58;4.35;;;2.70;;
70946;SDS011;58605;48.700;8.760;2022-10-16T00:43:34;3.38;;;3.08;;
70946;SDS011;58605;48.700;8.760;2022-10-16T00:46:04;6.15;;;2.60;;
70946;SDS011;58605;48.700;8.760;2022-10-16T00:48:36;5.57;;;3.35;;
70946;SDS011;58605;48.700;8.760;2022-10-16T00:51:03;9.05;;;2.85;;
70946;SDS011;58605;48.700;8.760;2022-10-16T00:53:31;3.23;;;2.93;;
70946;SDS011;58605;48.700;8.760;2022-10-16T00:55:57;5.28;;;3.20;;
70946;SDS011;58605;48.700;8.760;2022-10-16T00:58:23;42.13;;;4.93;;
70946;SDS011;58605;48.700;8.760;2022-10-16T01:00:49;140.57;;;8.18;;
70946;SDS011;58605;48.700;8.760;2022-10-16T01:03:22;46.40;;;5.25;;
70946;SDS011;58605;48.700;8.760;2022-10-16T01:05:54;17.42;;;3.53;;
70946;SDS011;58605;48.700;8.760;2022-10-16T01:08:34;39.25;;;4.80;;
70946;SDS011;58605;48.700;8.760;2022-10-16T01:11:07;3.43;;;2.97;;
70946;SDS011;58605;48.700;8.760;2022-10-16T01:13:41;3.88;;;3.20;;
70946;SDS011;58605;48.700;8.760;2022-10-16T01:16:12;2.85;;;2.65;;
70946;SDS011;58605;48.700;8.760;2022-10-16T01:18:42;2.83;;;2.63;;
70946;SDS011;58605;48.700;8.760;2022-10-16T01:21:12;3.30;;;2.90;;
70946;SDS011;58605;48.700;8.760;2022-10-16T01:23:44;3.10;;;2.53;;
70946;SDS011;58605;48.700;8.760;2022-10-16T01:26:23;4.63;;;2.80;;
70946;SDS011;58605;48.700;8.760;2022-10-16T01:29:03;5.00;;;3.30;;
70946;SDS011;58605;48.700;8.760;2022-10-16T01:31:34;2.85;;;2.65;;
70946;SDS011;58605;48.700;8.760;2022-10-16T01:34:05;3.80;;;2.58;;
70946;SDS011;58605;48.700;8.760;2022-10-16T01:36:35;3.90;;;3.10;;
70946;SDS011;58605;48.700;8.760;2022-10-16T01:39:04;3.50;;;3.20;;
70946;SDS011;58605;48.700;8.760;2022-10-16T01:41:35;4.23;;;3.23;;
70946;SDS011;58605;48.700;8.760;2022-10-16T01:44:06;4.82;;;2.95;;
70946;SDS011;58605;48.700;8.760;2022-10-16T01:46:35;5.37;;;3.03;;
70946;SDS011;58605;48.700;8.760;2022-10-16T01:49:03;3.85;;;2.80;;
70946;SDS011;58605;48.700;8.760;2022-10-16T01:51:31;3.35;;;3.03;;
70946;SDS011;58605;48.700;8.760;2022-10-16T01:54:00;3.53;;;2.97;;
70946;SDS011;58605;48.700;8.760;2022-10-16T01:56:27;5.13;;;2.90;;
70946;SDS011;58605;48.700;8.760;2022-10-16T01:58:55;3.87;;;3.00;;
70946;SDS011;58605;48.700;8.760;2022-10-16T02:01:28;140.20;;;8.50;;
70946;SDS011;58605;48.700;8.760;2022-10-16T02:03:57;135.73;;;8.00;;
70946;SDS011;58605;48.700;8.760;2022-10-16T02:06:26;159.20;;;9.27;;
70946;SDS011;58605;48.700;8.760;2022-10-16T02:08:54;116.38;;;7.25;;
70946;SDS011;58605;48.700;8.760;2022-10-16T02:11:20;130.60;;;8.50;;
70946;SDS011;58605;48.700;8.760;2022-10-16T02:13:48;86.10;;;6.07;;
70946;SDS011;58605;48.700;8.760;2022-10-16T02:16:18;3.10;;;2.80;;
70946;SDS011;58605;48.700;8.760;2022-10-16T02:18:45;3.13;;;2.90;;
70946;SDS011;58605;48.700;8.760;2022-10-16T02:21:13;5.00;;;3.00;;
70946;SDS011;58605;48.700;8.760;2022-10-16T02:23:43;4.40;;;3.00;;
70946;SDS011;58605;48.700;8.760;2022-10-16T02:26:23;4.75;;;3.03;;
70946;SDS011;58605;48.700;8.760;2022-10-16T02:28:54;6.50;;;2.88;;
70946;SDS011;58605;48.700;8.760;2022-10-16T02:31:25;3.17;;;2.87;;
70946;SDS011;58605;48.700;8.760;2022-10-16T02:33:55;3.33;;;3.03;;
70946;SDS011;58605;48.700;8.760;2022-10-16T02:36:24;20.17;;;3.28;;
70946;SDS011;58605;48.700;8.760;2022-10-16T02:38:51;17.35;;;3.50;;
70946;SDS011;58605;48.700;8.760;2022-10-16T02:41:18;4.45;;;2.58;;
70946;SDS011;58605;48.700;8.760;2022-10-16T02:43:45;6.18;;;3.08;;
70946;SDS011;58605;48.700;8.760;2022-10-16T02:46:11;4.28;;;2.92;;
70946;SDS011;58605;48.700;8.760;2022-10-16T02:48:37;6.50;;;3.13;;
70946;SDS011;58605;48.700;8.760;2022-10-16T02:51:05;5.03;;;3.33;;
70946;SDS011;58605;48.700;8.760;2022-10-16T02:53:31;3.13;;;2.87;;
70946;SDS011;58605;48.700;8.760;2022-10-16T02:55:57;4.88;;;3.05;;
70946;SDS011;58605;48.700;8.760;2022-10-16T02:58:23;3.83;;;2.92;;
70946;SDS011;58605;48.700;8.760;2022-10-16T03:00:49;3.77;;;2.87;;
70946;SDS011;58605;48.700;8.760;2022-10-16T03:03:15;3.83;;;3.20;;
70946;SDS011;58605;48.700;8.760;2022-10-16T03:05:42;4.10;;;3.00;;
70946;SDS011;58605;48.700;8.760;2022-10-16T03:08:12;4.73;;;2.90;;
70946;SDS011;58605;48.700;8.760;2022-10-16T03:10:38;4.28;;;3.03;;
70946;SDS011;58605;48.700;8.760;2022-10-16T03:13:04;3.08;;;2.75;;
70946;SDS011;58605;48.700;8.760;2022-10-16T03:15:30;3.55;;;2.90;;
70946;SDS011;58605;48.700;8.760;2022-10-16T03:17:57;2.90;;;2.70;;
70946;SDS011;58605;48.700;8.760;2022-10-16T03:20:23;3.42;;;2.70;;
70946;SDS011;58605;48.700;8.760;2022-10-16T03:22:56;4.10;;;2.80;;
70946;SDS011;58605;48.700;8.760;2022-10-16T03:25:23;6.82;;;3.13;;
70946;SDS011;58605;48.700;8.760;2022-10-16T03:27:49;3.83;;;2.90;;
70946;SDS011;58605;48.700;8.760;2022-10-16T03:30:15;5.10;;;3.10;;
70946;SDS011;58605;48.700;8.760;2022-10-16T03:32:41;2.95;;;2.72;;
70946;SDS011;58605;48.700;8.760;2022-10-16T03:35:09;3.25;;;2.95;;
70946;SDS011;58605;48.700;8.760;2022-10-16T03:37:35;4.07;;;3.15;;
70946;SDS011;58605;48.700;8.760;2022-10-16T03:40:01;6.45;;;3.20;;
70946;SDS011;58605;48.700;8.760;2022-10-16T03:42:29;6.00;;;3.20;;
70946;SDS011;58605;48.700;8.760;2022-10-16T03:44:55;6.72;;;3.38;;
70946;SDS011;58605;48.700;8.760;2022-10-16T03:47:21;3.77;;;3.30;;
70946;SDS011;58605;48.700;8.760;2022-10-16T03:49:48;4.10;;;2.70;;
70946;SDS011;58605;48.700;8.760;2022-10-16T03:52:14;3.08;;;2.88;;
70946;SDS011;58605;48.700;8.760;2022-10-16T03:54:40;4.55;;;2.85;;
70946;SDS011;58605;48.700;8.760;2022-10-16T03:57:06;7.50;;;2.97;;
70946;SDS011;58605;48.700;8.760;2022-10-16T03:59:34;5.20;;;3.03;;
70946;SDS011;58605;48.700;8.760;2022-10-16T04:02:00;5.68;;;2.90;;
70946;SDS011;58605;48.700;8.760;2022-10-16T04:04:26;3.13;;;2.90;;
70946;SDS011;58605;48.700;8.760;2022-10-16T04:06:52;3.77;;;2.77;;
70946;SDS011;58605;48.700;8.760;2022-10-16T04:09:17;28.13;;;4.15;;
70946;SDS011;58605;48.700;8.760;2022-10-16T04:11:43;79.35;;;5.85;;
70946;SDS011;58605;48.700;8.760;2022-10-16T04:14:09;52.37;;;4.40;;
70946;SDS011;58605;48.700;8.760;2022-10-16T04:16:37;20.47;;;3.70;;
70946;SDS011;58605;48.700;8.760;2022-10-16T04:19:02;10.27;;;2.80;;
70946;SDS011;58605;48.700;8.760;2022-10-16T04:21:28;2.55;;;2.35;;
70946;SDS011;58605;48.700;8.760;2022-10-16T04:23:54;3.50;;;2.97;;
70946;SDS011;58605;48.700;8.760;2022-10-16T04:26:20;75.33;;;6.00;;
70946;SDS011;58605;48.700;8.760;2022-10-16T04:28:46;15.00;;;3.30;;
70946;SDS011;58605;48.700;8.760;2022-10-16T04:31:12;14.27;;;3.60;;
70946;SDS011;58605;48.700;8.760;2022-10-16T04:33:40;11.13;;;2.97;;
70946;SDS011;58605;48.700;8.760;2022-10-16T04:36:08;6.15;;;3.03;;
70946;SDS011;58605;48.700;8.760;2022-10-16T04:38:34;5.83;;;2.70;;
70946;SDS011;58605;48.700;8.760;2022-10-16T04:41:02;7.20;;;2.80;;
70946;SDS011;58605;48.700;8.760;2022-10-16T04:43:28;4.97;;;2.73;;
70946;SDS011;58605;48.700;8.760;2022-10-16T04:45:55;38.63;;;4.27;;
70946;SDS011;58605;48.700;8.760;2022-10-16T04:48:21;3.60;;;2.60;;
70946;SDS011;58605;48.700;8.760;2022-10-16T04:50:49;5.55;;;2.75;;
70946;SDS011;58605;48.700;8.760;2022-10-16T04:53:15;3.78;;;2.55;;
70946;SDS011;58605;48.700;8.760;2022-10-16T04:55:41;3.60;;;2.67;;
70946;SDS011;58605;48.700;8.760;2022-10-16T04:58:07;3.67;;;3.37;;
70946;SDS011;58605;48.700;8.760;2022-10-16T05:00:33;3.40;;;3.10;;
70946;SDS011;58605;48.700;8.760;2022-10-16T05:02:59;3.05;;;2.63;;
70946;SDS011;58605;48.700;8.760;2022-10-16T05:05:26;4.05;;;3.08;;
70946;SDS011;58605;48.700;8.760;2022-10-16T05:07:53;3.13;;;2.93;;
70946;SDS011;58605;48.700;8.760;2022-10-16T05:10:19;3.10;;;2.80;;
70946;SDS011;58605;48.700;8.760;2022-10-16T05:12:45;3.67;;;3.10;;
70946;SDS011;58605;48.700;8.760;2022-10-16T05:15:11;5.07;;;3.10;;
70946;SDS011;58605;48.700;8.760;2022-10-16T05:17:37;3.33;;;2.50;;
70946;SDS011;58605;48.700;8.760;2022-10-16T05:20:04;2.83;;;2.47;;
70946;SDS011;58605;48.700;8.760;2022-10-16T05:22:30;4.50;;;3.15;;
70946;SDS011;58605;48.700;8.760;2022-10-16T05:24:58;12.75;;;3.08;;
70946;SDS011;58605;48.700;8.760;2022-10-16T05:27:24;16.92;;;2.95;;
70946;SDS011;58605;48.700;8.760;2022-10-16T05:29:50;3.28;;;2.88;;
70946;SDS011;58605;48.700;8.760;2022-10-16T05:32:16;4.30;;;2.70;;
70946;SDS011;58605;48.700;8.760;2022-10-16T05:34:43;3.53;;;2.63;;
70946;SDS011;58605;48.700;8.760;2022-10-16T05:37:09;3.20;;;2.90;;
70946;SDS011;58605;48.700;8.760;2022-10-16T05:39:36;7.40;;;2.73;;
70946;SDS011;58605;48.700;8.760;2022-10-16T05:42:04;4.13;;;2.77;;
70946;SDS011;58605;48.700;8.760;2022-10-16T05:44:30;4.53;;;2.97;;
70946;SDS011;58605;48.700;8.760;2022-10-16T05:46:56;3.67;;;2.70;;
70946;SDS011;58605;48.700;8.760;2022-10-16T05:49:22;5.70;;;2.90;;
70946;SDS011;58605;48.700;8.760;2022-10-16T05:51:48;5.77;;;3.07;;
70946;SDS011;58605;48.700;8.760;2022-10-16T05:54:14;3.22;;;2.47;;
70946;SDS011;58605;48.700;8.760;2022-10-16T05:56:40;4.87;;;2.80;;
70946;SDS011;58605;48.700;8.760;2022-10-16T05:59:08;5.30;;;3.37;;
70946;SDS011;58605;48.700;8.760;2022-10-16T06:01:34;3.83;;;2.80;;
70946;SDS011;58605;48.700;8.760;2022-10-16T06:04:00;4.83;;;2.90;;
70946;SDS011;58605;48.700;8.760;2022-10-16T06:06:27;3.80;;;3.00;;
70946;SDS011;58605;48.700;8.760;2022-10-16T06:08:55;5.37;;;3.20;;
70946;SDS011;58605;48.700;8.760;2022-10-16T06:11:23;4.93;;;3.40;;
70946;SDS011;58605;48.700;8.760;2022-10-16T06:13:50;3.33;;;3.03;;
70946;SDS011;58605;48.700;8.760;2022-10-16T06:16:19;5.88;;;3.20;;
70946;SDS011;58605;48.700;8.760;2022-10-16T06:18:45;4.75;;;3.10;;
70946;SDS011;58605;48.700;8.760;2022-10-16T06:21:12;4.40;;;3.03;;
70946;SDS011;58605;48.700;8.760;2022-10-16T06:23:41;4.23;;;3.23;;
70946;SDS011;58605;48.700;8.760;2022-10-16T06:26:18;3.40;;;3.10;;
70946;SDS011;58605;48.700;8.760;2022-10-16T06:28:45;3.70;;;3.40;;
70946;SDS011;58605;48.700;8.760;2022-10-16T06:31:12;26.75;;;4.88;;
70946;SDS011;58605;48.700;8.760;2022-10-16T06:33:40;52.70;;;6.13;;
70946;SDS011;58605;48.700;8.760;2022-10-16T06:36:07;32.65;;;5.43;;
70946;SDS011;58605;48.700;8.760;2022-10-16T06:38:35;5.47;;;3.90;;
70946;SDS011;58605;48.700;8.760;2022-10-16T06:41:01;4.40;;;4.00;;
70946;SDS011;58605;48.700;8.760;2022-10-16T06:43:28;3.80;;;3.50;;
70946;SDS011;58605;48.700;8.760;2022-10-16T06:45:57;4.53;;;3.70;;
70946;SDS011;58605;48.700;8.760;2022-10-16T06:48:25;4.07;;;3.17;;
70946;SDS011;58605;48.700;8.760;2022-10-16T06:50:56;4.73;;;3.43;;
70946;SDS011;58605;48.700;8.760;2022-10-16T06:53:23;4.67;;;3.47;;
70946;SDS011;58605;48.700;8.760;2022-10-16T06:55:49;5.33;;;3.57;;
70946;SDS011;58605;48.700;8.760;2022-10-16T06:58:15;10.67;;;3.67;;
70946;SDS011;58605;48.700;8.760;2022-10-16T07:00:41;5.13;;;3.30;;
70946;SDS011;58605;48.700;8.760;2022-10-16T07:03:07;4.10;;;3.20;;
70946;SDS011;58605;48.700;8.760;2022-10-16T07:05:36;3.50;;;3.17;;
70946;SDS011;58605;48.700;8.760;2022-10-16T07:08:05;5.30;;;3.53;;
70946;SDS011;58605;48.700;8.760;2022-10-16T07:10:31;5.03;;;3.20;;
70946;SDS011;58605;48.700;8.760;2022-10-16T07:12:56;4.20;;;3.80;;
70946;SDS011;58605;48.700;8.760;2022-10-16T07:15:22;5.47;;;3.55;;
70946;SDS011;58605;48.700;8.760;2022-10-16T07:17:49;6.82;;;4.40;;
70946;SDS011;58605;48.700;8.760;2022-10-16T07:20:15;4.32;;;3.92;;
70946;SDS011;58605;48.700;8.760;2022-10-16T07:22:41;4.05;;;3.70;;
70946;SDS011;58605;48.700;8.760;2022-10-16T07:25:09;5.37;;;4.23;;
70946;SDS011;58605;48.700;8.760;2022-10-16T07:27:36;3.97;;;3.67;;
70946;SDS011;58605;48.700;8.760;2022-10-16T07:30:16;7.97;;;3.73;;
70946;SDS011;58605;48.700;8.760;2022-10-16T07:32:42;5.23;;;4.03;;
70946;SDS011;58605;48.700;8.760;2022-10-16T07:35:08;4.32;;;3.90;;
70946;SDS011;58605;48.700;8.760;2022-10-16T07:37:34;3.83;;;3.53;;
70946;SDS011;58605;48.700;8.760;2022-10-16T07:40:00;4.50;;;3.38;;
70946;SDS011;58605;48.700;8.760;2022-10-16T07:42:28;3.83;;;3.05;;
70946;SDS011;58605;48.700;8.760;2022-10-16T07:44:54;3.45;;;3.15;;
70946;SDS011;58605;48.700;8.760;2022-10-16T07:47:20;5.32;;;3.22;;
70946;SDS011;58605;48.700;8.760;2022-10-16T07:49:46;3.87;;;2.77;;
70946;SDS011;58605;48.700;8.760;2022-10-16T07:52:12;3.53;;;2.77;;
70946;SDS011;58605;48.700;8.760;2022-10-16T07:54:37;8.35;;;3.20;;
70946;SDS011;58605;48.700;8.760;2022-10-16T07:57:03;6.88;;;3.95;;
70946;SDS011;58605;48.700;8.760;2022-10-16T07:59:31;3.15;;;2.63;;
70946;SDS011;58605;48.700;8.760;2022-10-16T08:01:57;3.10;;;2.80;;
70946;SDS011;58605;48.700;8.760;2022-10-16T08:04:22;3.47;;;3.13;;
70946;SDS011;58605;48.700;8.760;2022-10-16T08:06:48;5.72;;;2.90;;
70946;SDS011;58605;48.700;8.760;2022-10-16T08:09:14;3.47;;;2.85;;
70946;SDS011;58605;48.700;8.760;2022-10-16T08:11:40;4.15;;;2.90;;
70946;SDS011;58605;48.700;8.760;2022-10-16T08:14:06;2.73;;;2.50;;
70946;SDS011;58605;48.700;8.760;2022-10-16T08:16:34;2.70;;;2.50;;
70946;SDS011;58605;48.700;8.760;2022-10-16T08:19:00;2.40;;;2.20;;
70946;SDS011;58605;48.700;8.760;2022-10-16T08:21:25;2.63;;;2.40;;
70946;SDS011;58605;48.700;8.760;2022-10-16T08:23:52;2.47;;;2.28;;
70946;SDS011;58605;48.700;8.760;2022-10-16T08:26:19;2.60;;;2.40;;
70946;SDS011;58605;48.700;8.760;2022-10-16T08:28:45;3.03;;;2.20;;
70946;SDS011;58605;48.700;8.760;2022-10-16T08:31:21;4.25;;;2.20;;
70946;SDS011;58605;48.700;8.760;2022-10-16T08:33:49;2.90;;;2.60;;
70946;SDS011;58605;48.700;8.760;2022-10-16T08:36:15;4.10;;;2.50;;
70946;SDS011;58605;48.700;8.760;2022-10-16T08:38:41;2.17;;;2.08;;
70946;SDS011;58605;48.700;8.760;2022-10-16T08:41:17;2.20;;;2.10;;
70946;SDS011;58605;48.700;8.760;2022-10-16T08:44:00;2.50;;;2.30;;
70946;SDS011;58605;48.700;8.760;2022-10-16T08:46:55;2.80;;;2.30;;
70946;SDS011;58605;48.700;8.760;2022-10-16T08:49:29;2.77;;;2.53;;
70946;SDS011;58605;48.700;8.760;2022-10-16T08:51:55;2.60;;;2.30;;
70946;SDS011;58605;48.700;8.760;2022-10-16T08:54:25;4.00;;;2.50;;
70946;SDS011;58605;48.700;8.760;2022-10-16T08:56:54;2.93;;;2.17;;
70946;SDS011;58605;48.700;8.760;2022-10-16T08:59:21;3.20;;;2.47;;
70946;SDS011;58605;48.700;8.760;2022-10-16T09:01:49;2.37;;;2.07;;
70946;SDS011;58605;48.700;8.760;2022-10-16T09:04:39;3.40;;;2.55;;
70946;SDS011;58605;48.700;8.760;2022-10-16T09:07:14;3.58;;;2.40;;
70946;SDS011;58605;48.700;8.760;2022-10-16T09:09:53;2.85;;;2.50;;
70946;SDS011;58605;48.700;8.760;2022-10-16T09:12:28;2.70;;;2.50;;
70946;SDS011;58605;48.700;8.760;2022-10-16T09:15:02;2.27;;;2.07;;
70946;SDS011;58605;48.700;8.760;2022-10-16T09:17:41;3.90;;;2.65;;
70946;SDS011;58605;48.700;8.760;2022-10-16T09:20:17;2.73;;;2.27;;
70946;SDS011;58605;48.700;8.760;2022-10-16T09:22:48;2.50;;;2.30;;
70946;SDS011;58605;48.700;8.760;2022-10-16T09:25:14;3.05;;;2.70;;
70946;SDS011;58605;48.700;8.760;2022-10-16T09:27:42;6.40;;;2.38;;
70946;SDS011;58605;48.700;8.760;2022-10-16T09:30:12;2.50;;;2.30;;
70946;SDS011;58605;48.700;8.760;2022-10-16T09:32:39;2.37;;;2.17;;
70946;SDS011;58605;48.700;8.760;2022-10-16T09:35:09;2.50;;;2.30;;
70946;SDS011;58605;48.700;8.760;2022-10-16T09:37:40;4.60;;;2.85;;
70946;SDS011;58605;48.700;8.760;2022-10-16T09:40:11;3.63;;;2.50;;
70946;SDS011;58605;48.700;8.760;2022-10-16T09:42:38;3.00;;;2.70;;
70946;SDS011;58605;48.700;8.760;2022-10-16T09:45:05;2.83;;;2.47;;
70946;SDS011;58605;48.700;8.760;2022-10-16T09:47:45;2.88;;;2.60;;
70946;SDS011;58605;48.700;8.760;2022-10-16T09:50:19;2.93;;;2.43;;
70946;SDS011;58605;48.700;8.760;2022-10-16T09:52:48;4.15;;;2.30;;
70946;SDS011;58605;48.700;8.760;2022-10-16T09:55:15;3.22;;;2.72;;
70946;SDS011;58605;48.700;8.760;2022-10-16T09:57:48;2.97;;;2.67;;
70946;SDS011;58605;48.700;8.760;2022-10-16T10:00:16;3.97;;;2.70;;
70946;SDS011;58605;48.700;8.760;2022-10-16T10:02:43;3.50;;;2.65;;
70946;SDS011;58605;48.700;8.760;2022-10-16T10:05:17;3.67;;;2.83;;
70946;SDS011;58605;48.700;8.760;2022-10-16T10:07:46;2.78;;;2.47;;
70946;SDS011;58605;48.700;8.760;2022-10-16T10:10:21;3.13;;;2.60;;
70946;SDS011;58605;48.700;8.760;2022-10-16T10:12:49;2.97;;;2.63;;
70946;SDS011;58605;48.700;8.760;2022-10-16T10:15:15;3.47;;;2.60;;
70946;SDS011;58605;48.700;8.760;2022-10-16T10:17:49;2.93;;;2.70;;
70946;SDS011;58605;48.700;8.760;2022-10-16T10:20:24;2.40;;;2.20;;
70946;SDS011;58605;48.700;8.760;2022-10-16T10:22:52;3.90;;;2.58;;
70946;SDS011;58605;48.700;8.760;2022-10-16T10:25:37;6.60;;;3.20;;
70946;SDS011;58605;48.700;8.760;2022-10-16T10:28:18;2.80;;;2.60;;
70946;SDS011;58605;48.700;8.760;2022-10-16T10:31:11;3.03;;;2.70;;
70946;SDS011;58605;48.700;8.760;2022-10-16T10:33:45;3.00;;;2.60;;
70946;SDS011;58605;48.700;8.760;2022-10-16T10:36:18;3.03;;;2.80;;
70946;SDS011;58605;48.700;8.760;2022-10-16T10:38:51;2.92;;;2.72;;
70946;SDS011;58605;48.700;8.760;2022-10-16T10:44:23;2.80;;;2.60;;
70946;SDS011;58605;48.700;8.760;2022-10-16T10:47:01;3.25;;;2.40;;
70946;SDS011;58605;48.700;8.760;2022-10-16T10:49:36;2.90;;;2.70;;
70946;SDS011;58605;48.700;8.760;2022-10-16T10:52:13;4.77;;;2.80;;
70946;SDS011;58605;48.700;8.760;2022-10-16T10:55:00;3.75;;;2.88;;
70946;SDS011;58605;48.700;8.760;2022-10-16T10:57:40;3.90;;;2.90;;
70946;SDS011;58605;48.700;8.760;2022-10-16T11:00:18;3.95;;;2.88;;
70946;SDS011;58605;48.700;8.760;2022-10-16T11:02:48;4.40;;;2.90;;
70946;SDS011;58605;48.700;8.760;2022-10-16T11:05:28;2.90;;;2.67;;
70946;SDS011;58605;48.700;8.760;2022-10-16T11:08:02;3.75;;;3.17;;
70946;SDS011;58605;48.700;8.760;2022-10-16T11:10:34;2.88;;;2.47;;
70946;SDS011;58605;48.700;8.760;2022-10-16T11:13:11;4.67;;;2.80;;
70946;SDS011;58605;48.700;8.760;2022-10-16T11:15:48;4.43;;;2.95;;
70946;SDS011;58605;48.700;8.760;2022-10-16T11:18:18;4.10;;;3.08;;
70946;SDS011;58605;48.700;8.760;2022-10-16T11:20:48;3.38;;;3.08;;
70946;SDS011;58605;48.700;8.760;2022-10-16T11:23:21;4.25;;;3.10;;
70946;SDS011;58605;48.700;8.760;2022-10-16T11:25:50;3.03;;;2.72;;
70946;SDS011;58605;48.700;8.760;2022-10-16T11:28:19;3.78;;;3.10;;
70946;SDS011;58605;48.700;8.760;2022-10-16T11:30:52;3.20;;;2.90;;
70946;SDS011;58605;48.700;8.760;2022-10-16T11:33:24;3.05;;;2.75;;
70946;SDS011;58605;48.700;8.760;2022-10-16T11:35:59;3.15;;;2.85;;
70946;SDS011;58605;48.700;8.760;2022-10-16T11:38:29;4.10;;;3.13;;
70946;SDS011;58605;48.700;8.760;2022-10-16T11:41:00;2.90;;;2.70;;
70946;SDS011;58605;48.700;8.760;2022-10-16T11:43:31;4.05;;;2.72;;
70946;SDS011;58605;48.700;8.760;2022-10-16T11:46:04;3.63;;;3.05;;
70946;SDS011;58605;48.700;8.760;2022-10-16T11:48:36;3.38;;;2.80;;
70946;SDS011;58605;48.700;8.760;2022-10-16T11:51:08;3.50;;;2.80;;
70946;SDS011;58605;48.700;8.760;2022-10-16T11:53:43;4.07;;;3.15;;
70946;SDS011;58605;48.700;8.760;2022-10-16T11:56:12;2.85;;;2.65;;
70946;SDS011;58605;48.700;8.760;2022-10-16T11:58:41;2.72;;;2.53;;
70946;SDS011;58605;48.700;8.760;2022-10-16T12:01:19;3.53;;;2.95;;
70946;SDS011;58605;48.700;8.760;2022-10-16T12:03:56;3.10;;;2.83;;
70946;SDS011;58605;48.700;8.760;2022-10-16T12:06:31;2.83;;;2.63;;
70946;SDS011;58605;48.700;8.760;2022-10-16T12:09:01;2.80;;;2.60;;
70946;SDS011;58605;48.700;8.760;2022-10-16T12:11:32;2.72;;;2.53;;
70946;SDS011;58605;48.700;8.760;2022-10-16T12:14:04;3.00;;;2.80;;
70946;SDS011;58605;48.700;8.760;2022-10-16T12:16:34;3.33;;;2.88;;
70946;SDS011;58605;48.700;8.760;2022-10-16T12:19:07;4.68;;;3.00;;
70946;SDS011;58605;48.700;8.760;2022-10-16T12:21:37;9.50;;;3.67;;
70946;SDS011;58605;48.700;8.760;2022-10-16T12:24:03;2.80;;;2.60;;
70946;SDS011;58605;48.700;8.760;2022-10-16T12:26:31;4.47;;;2.70;;
70946;SDS011;58605;48.700;8.760;2022-10-16T12:29:09;3.50;;;3.05;;
70946;SDS011;58605;48.700;8.760;2022-10-16T12:31:42;3.08;;;2.88;;
70946;SDS011;58605;48.700;8.760;2022-10-16T12:34:14;3.70;;;3.40;;
70946;SDS011;58605;48.700;8.760;2022-10-16T12:36:48;3.55;;;3.25;;
70946;SDS011;58605;48.700;8.760;2022-10-16T12:39:20;3.40;;;3.10;;
70946;SDS011;58605;48.700;8.760;2022-10-16T12:41:47;3.40;;;3.10;;
70946;SDS011;58605;48.700;8.760;2022-10-16T12:44:20;5.97;;;2.97;;
70946;SDS011;58605;48.700;8.760;2022-10-16T12:46:49;3.28;;;2.97;;
70946;SDS011;58605;48.700;8.760;2022-10-16T12:49:21;3.97;;;3.60;;
70946;SDS011;58605;48.700;8.760;2022-10-16T12:51:54;5.25;;;3.50;;
70946;SDS011;58605;48.700;8.760;2022-10-16T12:54:22;4.28;;;3.40;;
70946;SDS011;58605;48.700;8.760;2022-10-16T12:56:58;3.88;;;3.58;;
70946;SDS011;58605;48.700;8.760;2022-10-16T12:59:35;3.40;;;3.10;;
70946;SDS011;58605;48.700;8.760;2022-10-16T13:05:16;3.47;;;3.17;;
70946;SDS011;58605;48.700;8.760;2022-10-16T13:07:56;4.65;;;3.45;;
70946;SDS011;58605;48.700;8.760;2022-10-16T13:10:33;3.67;;;3.38;;
70946;SDS011;58605;48.700;8.760;2022-10-16T13:13:09;5.40;;;3.45;;
70946;SDS011;58605;48.700;8.760;2022-10-16T13:18:35;4.38;;;3.78;;
70946;SDS011;58605;48.700;8.760;2022-10-16T13:21:13;3.85;;;3.55;;
70946;SDS011;58605;48.700;8.760;2022-10-16T13:23:54;3.60;;;3.30;;
70946;SDS011;58605;48.700;8.760;2022-10-16T13:26:28;3.65;;;3.30;;
70946;SDS011;58605;48.700;8.760;2022-10-16T13:29:03;3.95;;;3.50;;
70946;SDS011;58605;48.700;8.760;2022-10-16T13:31:29;3.78;;;3.47;;
70946;SDS011;58605;48.700;8.760;2022-10-16T13:33:59;4.22;;;3.88;;
70946;SDS011;58605;48.700;8.760;2022-10-16T13:36:26;3.90;;;3.50;;
70946;SDS011;58605;48.700;8.760;2022-10-16T13:39:00;3.70;;;3.40;;
70946;SDS011;58605;48.700;8.760;2022-10-16T13:41:34;4.50;;;3.80;;
70946;SDS011;58605;48.700;8.760;2022-10-16T13:44:00;4.05;;;3.75;;
70946;SDS011;58605;48.700;8.760;2022-10-16T13:46:27;3.63;;;3.33;;
70946;SDS011;58605;48.700;8.760;2022-10-16T13:48:59;4.22;;;3.83;;
70946;SDS011;58605;48.700;8.760;2022-10-16T13:51:27;5.70;;;3.63;;
70946;SDS011;58605;48.700;8.760;2022-10-16T13:53:54;4.13;;;3.72;;
70946;SDS011;58605;48.700;8.760;2022-10-16T13:56:25;4.60;;;4.15;;
70946;SDS011;58605;48.700;8.760;2022-10-16T13:58:59;4.40;;;3.90;;
70946;SDS011;58605;48.700;8.760;2022-10-16T14:01:26;4.22;;;3.58;;
70946;SDS011;58605;48.700;8.760;2022-10-16T14:04:00;4.22;;;3.58;;
70946;SDS011;58605;48.700;8.760;2022-10-16T14:06:28;3.83;;;3.53;;
70946;SDS011;58605;48.700;8.760;2022-10-16T14:08:56;4.32;;;3.67;;
70946;SDS011;58605;48.700;8.760;2022-10-16T14:11:25;5.00;;;4.10;;
70946;SDS011;58605;48.700;8.760;2022-10-16T14:13:51;5.70;;;4.03;;
70946;SDS011;58605;48.700;8.760;2022-10-16T14:16:18;5.53;;;4.25;;
70946;SDS011;58605;48.700;8.760;2022-10-16T14:18:46;6.53;;;4.60;;
70946;SDS011;58605;48.700;8.760;2022-10-16T14:21:21;4.65;;;4.25;;
70946;SDS011;58605;48.700;8.760;2022-10-16T14:23:47;5.95;;;4.53;;
70946;SDS011;58605;48.700;8.760;2022-10-16T14:26:14;5.60;;;4.43;;
70946;SDS011;58605;48.700;8.760;2022-10-16T14:28:42;4.65;;;4.20;;
70946;SDS011;58605;48.700;8.760;2022-10-16T14:31:24;7.47;;;4.50;;
70946;SDS011;58605;48.700;8.760;2022-10-16T14:33:51;4.85;;;4.45;;
70946;SDS011;58605;48.700;8.760;2022-10-16T14:36:17;5.03;;;4.53;;
70946;SDS011;58605;48.700;8.760;2022-10-16T14:38:49;7.03;;;4.57;;
70946;SDS011;58605;48.700;8.760;2022-10-16T14:41:22;5.00;;;4.60;;
70946;SDS011;58605;48.700;8.760;2022-10-16T14:43:49;4.43;;;4.00;;
70946;SDS011;58605;48.700;8.760;2022-10-16T14:46:20;5.00;;;4.60;;
70946;SDS011;58605;48.700;8.760;2022-10-16T14:48:51;5.30;;;4.80;;
70946;SDS011;58605;48.700;8.760;2022-10-16T14:51:22;5.13;;;4.38;;
70946;SDS011;58605;48.700;8.760;2022-10-16T14:53:50;5.78;;;4.55;;
70946;SDS011;58605;48.700;8.760;2022-10-16T14:56:17;5.20;;;4.70;;
70946;SDS011;58605;48.700;8.760;2022-10-16T14:58:45;4.72;;;4.32;;
70946;SDS011;58605;48.700;8.760;2022-10-16T15:01:11;6.32;;;4.60;;
70946;SDS011;58605;48.700;8.760;2022-10-16T15:03:37;5.07;;;4.38;;
70946;SDS011;58605;48.700;8.760;2022-10-16T15:06:04;4.75;;;4.35;;
70946;SDS011;58605;48.700;8.760;2022-10-16T15:08:35;5.50;;;4.45;;